Time;durP1;ratioP1;P1;durP2;ratioP2;P2;SDS_P1;SDS_P2;PMS_P1;PMS_P2;Temp;Humidity;BMP_temperature;BMP_pressure;BME280_temperature;BME280_humidity;BME280_pressure;Samples;Min_cycle;Max_cycle;Signal;HPM_P1;HPM_P2
2022/05/10 10:39:57;;;;;;;6.75;4.00;;;;;;;28.08;33.78;99927.00;4912604;23;20109;-84
2022/05/10 10:42:38;;;;;;;5.95;4.40;;;;;;;28.08;33.98;99913.47;5021334;28;20084;-84
2022/05/10 10:45:14;;;;;;;4.80;4.00;;;;;;;28.07;34.22;99906.41;5052291;28;20498;-82
2022/05/10 10:47:59;;;;;;;5.22;3.72;;;;;;;28.06;34.36;99912.81;5052047;28;20092;-82
2022/05/10 10:50:35;;;;;;;7.50;3.85;;;;;;;28.02;34.10;99906.13;5051790;28;20059;-84
2022/05/10 10:53:06;;;;;;;5.60;4.10;;;;;;;28.02;34.43;99903.44;5052257;28;20052;-84
2022/05/10 10:55:43;;;;;;;5.13;3.53;;;;;;;27.93;34.59;99903.63;5052904;28;20560;-83
2022/05/10 10:58:47;;;;;;;5.55;3.40;;;;;;;27.88;34.31;99897.94;5054258;28;20045;-84
2022/05/10 11:01:36;;;;;;;4.70;3.08;;;;;;;27.83;34.39;99901.25;5054104;28;20052;-84
2022/05/10 11:04:15;;;;;;;6.35;3.53;;;;;;;27.79;34.18;99899.97;5054615;28;20067;-83
2022/05/10 11:06:50;;;;;;;8.40;3.60;;;;;;;27.74;33.65;99894.34;5055428;28;20460;-85
2022/05/10 11:09:44;;;;;;;12.15;3.35;;;;;;;27.66;33.27;99884.50;5036664;28;20453;-84
2022/05/10 11:12:23;;;;;;;6.00;2.88;;;;;;;27.63;33.63;99882.19;5035745;28;20107;-85
2022/05/10 11:15:11;;;;;;;9.23;3.22;;;;;;;27.51;33.56;99864.81;5053995;28;20056;-86
2022/05/10 11:18:09;;;;;;;3.80;3.25;;;;;;;27.41;34.11;99859.75;5054888;28;20056;-86
2022/05/10 11:20:53;;;;;;;4.35;3.10;;;;;;;27.36;33.35;99849.50;5054535;28;20055;-85
2022/05/10 11:23:33;;;;;;;3.67;2.78;;;;;;;27.34;33.88;99848.88;5054465;28;20059;-84
2022/05/10 11:26:19;;;;;;;6.93;3.17;;;;;;;27.29;33.71;99846.75;5054567;28;20052;-86
2022/05/10 11:29:20;;;;;;;4.80;2.90;;;;;;;27.28;33.29;99846.97;5036767;28;20052;-84
2022/05/10 11:31:53;;;;;;;4.00;2.80;;;;;;;27.32;33.36;99857.19;5055695;28;20533;-86
2022/05/10 11:34:20;;;;;;;;;;;;;;;27.29;34.01;99846.75;5037719;28;20053;-84
2022/05/10 11:36:49;;;;;;;4.75;3.05;;;;;;;27.35;32.87;99849.72;5037577;28;19924;-84
2022/05/10 11:39:22;;;;;;;5.25;3.00;;;;;;;27.32;33.14;99840.13;5053272;28;20064;-85
2022/05/10 11:42:12;;;;;;;7.18;3.33;;;;;;;27.33;33.71;99836.41;5052825;28;20517;-83
2022/05/10 11:44:56;;;;;;;4.20;3.03;;;;;;;27.43;33.27;99836.88;5053099;28;20476;-83
2022/05/10 11:47:50;;;;;;;5.43;3.28;;;;;;;27.58;33.92;99841.34;5052963;28;20056;-83
2022/05/10 11:50:36;;;;;;;3.67;2.80;;;;;;;27.80;33.08;99825.06;5052301;28;20091;-84
2022/05/10 11:53:41;;;;;;;6.18;3.13;;;;;;;27.97;33.66;99834.53;5053066;28;20057;-83
2022/05/10 11:56:08;;;;;;;4.32;2.85;;;;;;;28.24;33.69;99831.09;5052750;28;20049;-83
2022/05/10 11:58:37;;;;;;;10.57;3.40;;;;;;;28.43;33.26;99834.09;5026325;28;20100;-85
2022/05/10 12:01:11;;;;;;;4.35;2.85;;;;;;;28.58;32.69;99832.06;5025668;28;20092;-83
2022/05/10 12:03:42;;;;;;;6.25;3.10;;;;;;;28.74;32.04;99835.41;5033705;28;20140;-85
2022/05/10 12:06:24;;;;;;;7.38;3.35;;;;;;;28.88;32.01;99833.56;5020847;28;20128;-85
2022/05/10 12:08:52;;;;;;;8.18;3.10;;;;;;;29.03;31.53;99830.69;5033804;28;20045;-84
2022/05/10 12:11:28;;;;;;;9.82;2.80;;;;;;;29.10;30.62;99825.28;5014784;28;20104;-85
2022/05/10 12:22:14;;;;;;;4.68;2.30;;;;;;;29.45;29.99;99825.03;5038369;28;20054;-85
2022/05/10 12:24:49;;;;;;;7.40;3.33;;;;;;;29.48;29.29;99819.19;5038396;28;20115;-85
2022/05/10 12:27:16;;;;;;;4.13;3.15;;;;;;;29.51;29.71;99826.94;5020028;28;20458;-84
2022/05/10 12:29:42;;;;;;;5.05;2.83;;;;;;;29.47;29.43;99819.41;5037498;28;20517;-84
2022/05/10 12:32:18;;;;;;;7.65;3.47;;;;;;;29.38;30.30;99807.97;5019278;28;20458;-85
2022/05/10 12:34:45;;;;;;;4.55;2.72;;;;;;;29.31;29.84;99812.56;5020517;28;20053;-86
2022/05/10 12:37:33;;;;;;;3.83;2.75;;;;;;;29.18;29.80;99805.25;5037440;28;20057;-84
2022/05/10 12:40:09;;;;;;;11.07;3.20;;;;;;;29.11;29.96;99803.38;5020081;28;20100;-85
2022/05/10 12:43:09;;;;;;;5.18;2.88;;;;;;;29.03;29.97;99800.06;5037862;28;20128;-86
2022/05/10 12:45:55;;;;;;;8.88;3.00;;;;;;;29.03;29.97;99797.38;5020665;28;20057;-86
2022/05/10 12:48:44;;;;;;;4.80;3.08;;;;;;;28.87;30.13;99796.69;5038458;28;20113;-84
2022/05/10 12:51:19;;;;;;;5.10;3.00;;;;;;;28.79;30.03;99800.44;5037878;28;20057;-83
2022/05/10 12:53:58;;;;;;;7.38;2.60;;;;;;;28.68;30.08;99806.47;5037795;28;20073;-84
2022/05/10 12:56:50;;;;;;;5.28;2.90;;;;;;;28.59;29.92;99805.84;5020396;28;20054;-86
2022/05/10 12:59:27;;;;;;;5.47;2.78;;;;;;;28.47;29.92;99792.03;5026408;28;20053;-83
2022/05/10 13:01:57;;;;;;;3.72;3.30;;;;;;;28.40;30.26;99785.81;5037544;28;20455;-84
2022/05/10 13:04:30;;;;;;;8.13;2.72;;;;;;;28.36;30.27;99779.94;5037718;28;20057;-82
2022/05/10 13:07:08;;;;;;;5.30;2.78;;;;;;;28.45;30.91;99784.13;5035221;28;20132;-84
2022/05/10 13:09:49;;;;;;;11.52;3.25;;;;;;;28.66;31.45;99778.78;5017546;28;20076;-83
2022/05/10 13:12:24;;;;;;;3.95;2.58;;;;;;;28.92;30.77;99771.72;5016923;28;20049;-84
2022/05/10 13:14:55;;;;;;;4.88;2.70;;;;;;;29.23;30.72;99765.63;5035000;28;20049;-82
2022/05/10 13:17:26;;;;;;;4.35;2.70;;;;;;;29.55;30.78;99748.69;5017386;28;20053;-82
2022/05/10 13:19:53;;;;;;;3.60;2.63;;;;;;;29.82;30.33;99750.50;5016992;28;20100;-82
2022/05/10 13:22:21;;;;;;;9.00;2.88;;;;;;;30.00;29.35;99739.75;5027107;28;20053;-82
2022/05/10 13:24:51;;;;;;;2.60;2.25;;;;;;;30.09;29.24;99732.19;5035563;28;20061;-83
2022/05/10 13:27:29;;;;;;;6.00;3.00;;;;;;;30.12;28.65;99741.78;5038485;28;20104;-84
2022/05/10 13:30:17;;;;;;;3.80;2.65;;;;;;;30.11;27.75;99732.81;5038190;28;20049;-83
2022/05/10 13:32:47;;;;;;;4.30;2.92;;;;;;;30.10;28.31;99735.72;5020681;28;20061;-83
2022/05/10 13:35:27;;;;;;;7.28;3.05;;;;;;;29.97;27.99;99732.03;5038267;28;20164;-82
2022/05/10 13:37:57;;;;;;;4.10;2.60;;;;;;;29.87;28.16;99721.66;5037543;28;20099;-83
2022/05/10 13:40:54;;;;;;;7.40;2.50;;;;;;;29.65;28.24;99718.41;5038150;28;20088;-83
2022/05/10 13:43:35;;;;;;;5.78;3.03;;;;;;;29.51;27.96;99709.47;5038120;28;20074;-82
2022/05/10 13:46:07;;;;;;;4.80;2.58;;;;;;;29.32;28.60;99724.75;5019930;28;20045;-83
2022/05/10 13:48:38;;;;;;;5.37;2.80;;;;;;;29.26;28.86;99710.16;5038572;28;20061;-84
2022/05/10 13:51:17;;;;;;;8.43;3.13;;;;;;;29.29;29.21;99706.22;5038115;28;20295;-83
2022/05/10 13:53:54;;;;;;;5.28;3.17;;;;;;;29.37;29.61;99701.38;5020308;28;21058;-84
2022/05/10 13:56:27;;;;;;;5.40;2.80;;;;;;;29.51;29.24;99704.91;5020118;28;20057;-83
2022/05/10 13:58:53;;;;;;;8.57;2.67;;;;;;;29.63;29.16;99696.09;5020349;28;20077;-84
2022/05/10 14:01:43;;;;;;;6.03;2.88;;;;;;;29.61;28.12;99700.91;5030133;28;20103;-83
2022/05/10 14:04:12;;;;;;;5.35;2.95;;;;;;;29.65;28.26;99700.25;5020377;28;20081;-84
2022/05/10 14:06:49;;;;;;;11.00;3.08;;;;;;;29.59;28.41;99700.28;5020728;28;20049;-82
2022/05/10 14:09:24;;;;;;;4.13;2.92;;;;;;;29.54;28.33;99697.38;5039155;28;20053;-84
2022/05/10 14:11:53;;;;;;;5.40;2.88;;;;;;;29.47;28.71;99692.81;5038087;28;20054;-82
2022/05/10 14:14:25;;;;;;;5.45;2.95;;;;;;;29.38;28.71;99681.34;5038646;28;20053;-84
2022/05/10 14:16:52;;;;;;;8.50;3.35;;;;;;;29.34;29.44;99668.47;5020581;28;20120;-82
2022/05/10 14:19:28;;;;;;;3.38;2.50;;;;;;;29.30;29.40;99670.75;5038992;28;20133;-83
2022/05/10 14:21:55;;;;;;;7.72;2.97;;;;;;;29.33;29.08;99661.34;5038739;28;20123;-84
2022/05/10 14:24:23;;;;;;;7.13;3.25;;;;;;;29.38;28.89;99666.97;5021560;28;20099;-82
2022/05/10 14:27:13;;;;;;;7.47;2.80;;;;;;;29.46;28.96;99665.91;5039105;28;20054;-85
2022/05/10 14:29:43;;;;;;;6.90;2.70;;;;;;;29.62;28.64;99667.31;5020899;28;20553;-86
2022/05/10 14:32:14;;;;;;;9.65;3.08;;;;;;;29.65;27.90;99658.75;5039602;28;20046;-83
2022/05/10 14:34:54;;;;;;;4.05;2.97;;;;;;;29.61;27.95;99660.22;5039089;28;20112;-82
2022/05/10 14:37:36;;;;;;;6.10;2.90;;;;;;;29.52;27.86;99652.34;5040156;28;20053;-85
2022/05/10 14:40:22;;;;;;;;;;;;;;;29.37;28.91;99646.31;5039195;28;20055;-83
2022/05/10 14:42:58;;;;;;;4.47;2.90;;;;;;;29.27;28.05;99644.09;5038856;28;19932;-86
2022/05/10 14:45:25;;;;;;;4.25;2.70;;;;;;;29.22;28.33;99647.41;5039499;28;20061;-84
2022/05/10 14:47:57;;;;;;;4.55;2.78;;;;;;;29.13;28.32;99641.41;5038754;28;20471;-84
2022/05/10 14:50:37;;;;;;;3.65;2.70;;;;;;;29.01;28.49;99643.13;5037783;28;20179;-84
2022/05/10 14:53:12;;;;;;;4.57;2.83;;;;;;;28.94;28.49;99643.13;5020384;28;20045;-83
2022/05/10 14:55:42;;;;;;;4.60;2.65;;;;;;;28.84;28.67;99630.00;5038042;28;20060;-83
2022/05/10 14:58:11;;;;;;;2.95;2.65;;;;;;;28.72;29.08;99626.25;5020074;28;20399;-86
2022/05/10 15:00:41;;;;;;;5.38;2.63;;;;;;;28.64;28.81;99621.91;5038195;28;20132;-84
2022/05/10 15:03:18;;;;;;;6.38;2.72;;;;;;;28.51;29.11;99619.22;5038178;28;20053;-82
2022/05/10 15:05:45;;;;;;;4.80;2.50;;;;;;;28.46;29.47;99622.53;5038949;28;20057;-86
2022/05/10 15:08:12;;;;;;;6.63;2.55;;;;;;;28.39;29.29;99611.72;5038341;28;20057;-86
2022/05/10 15:10:41;;;;;;;3.33;2.50;;;;;;;28.33;29.60;99607.97;5039064;28;20049;-84
2022/05/10 15:13:09;;;;;;;6.03;3.22;;;;;;;28.29;29.61;99603.19;5038759;28;20049;-84
2022/05/10 15:15:37;;;;;;;6.63;2.97;;;;;;;28.29;30.07;99605.91;5020240;28;20065;-83
2022/05/10 15:20:50;;;;;;;4.32;2.60;;;;;;;28.52;29.64;99605.44;5036174;28;20049;-83
2022/05/10 15:23:16;;;;;;;5.82;2.53;;;;;;;28.63;29.79;99601.25;5036065;28;20185;-81
2022/05/10 15:25:43;;;;;;;5.63;2.78;;;;;;;28.70;29.66;99604.78;5035184;28;20050;-86
2022/05/10 15:28:11;;;;;;;3.33;2.33;;;;;;;28.75;29.78;99596.06;5037491;28;20076;-84
2022/05/10 15:30:38;;;;;;;7.15;2.70;;;;;;;28.75;29.51;99593.34;5034894;28;20108;-84
2022/05/10 15:33:05;;;;;;;4.88;2.55;;;;;;;28.72;29.40;99589.19;5017374;28;20053;-85
2022/05/10 15:35:32;;;;;;;4.70;2.60;;;;;;;28.66;29.27;99594.63;5035810;28;20466;-84
2022/05/10 15:37:58;;;;;;;3.53;2.50;;;;;;;28.55;29.13;99593.38;5035160;28;20049;-84
2022/05/10 15:40:25;;;;;;;3.65;2.53;;;;;;;28.40;29.36;99602.53;5035538;28;20059;-83
2022/05/10 15:42:51;;;;;;;6.45;2.78;;;;;;;28.25;29.65;99597.31;5034862;28;20104;-82
2022/05/10 15:45:18;;;;;;;4.13;2.80;;;;;;;28.09;29.87;99601.25;5034986;28;20096;-84
2022/05/10 15:47:47;;;;;;;6.22;2.67;;;;;;;27.94;30.12;99593.34;5035668;28;20656;-83
2022/05/10 15:50:19;;;;;;;5.95;2.97;;;;;;;27.75;30.43;99587.72;5016919;28;20045;-84
2022/05/10 15:52:46;;;;;;;5.88;3.30;;;;;;;27.60;30.28;99585.16;5035079;28;20058;-86
2022/05/10 15:55:12;;;;;;;8.60;2.55;;;;;;;27.44;30.78;99579.06;5036142;28;20088;-85
2022/05/10 15:57:39;;;;;;;11.68;3.67;;;;;;;27.34;31.00;99588.59;5035977;28;20057;-85
2022/05/10 16:00:09;;;;;;;4.50;2.70;;;;;;;27.23;31.42;99587.31;5035955;28;20056;-82
2022/05/10 16:02:36;;;;;;;37.53;8.80;;;;;;;27.16;31.38;99589.97;5035850;28;20099;-83
2022/05/10 16:05:04;;;;;;;7.07;3.88;;;;;;;27.10;31.11;99594.31;5036469;28;20457;-83
2022/05/10 16:07:32;;;;;;;10.77;5.20;;;;;;;27.03;31.49;99590.75;5036603;28;20049;-84
2022/05/10 16:10:00;;;;;;;4.90;2.97;;;;;;;26.97;31.67;99588.84;5036216;28;20487;-84
2022/05/10 16:12:26;;;;;;;8.52;4.25;;;;;;;26.91;31.73;99590.47;5037332;28;20045;-84
2022/05/10 16:14:55;;;;;;;11.70;4.05;;;;;;;26.83;31.71;99596.84;5019311;28;20092;-82
2022/05/10 16:17:22;;;;;;;6.63;3.40;;;;;;;26.75;31.91;99597.84;5036548;28;20079;-84
2022/05/10 16:20:01;;;;;;;3.30;2.60;;;;;;;26.69;32.30;99589.72;5036489;28;20088;-85
2022/05/10 16:22:27;;;;;;;5.55;2.88;;;;;;;26.64;32.55;99604.63;5035942;28;20081;-85
2022/05/10 16:24:54;;;;;;;5.72;3.08;;;;;;;26.57;32.59;99578.63;5035223;28;20049;-82
2022/05/10 16:30:06;;;;;;;8.05;2.90;;;;;;;26.43;32.93;99585.78;5035640;28;20462;-82
2022/05/10 16:32:33;;;;;;;5.90;2.72;;;;;;;26.35;32.70;99582.19;5036091;28;20073;-84
2022/05/10 16:35:00;;;;;;;6.10;3.08;;;;;;;26.30;32.93;99578.41;5017596;28;20061;-85
2022/05/10 16:37:27;;;;;;;3.72;2.80;;;;;;;26.22;32.71;99585.63;5017051;28;20060;-83
2022/05/10 16:39:53;;;;;;;5.60;3.10;;;;;;;26.15;33.20;99580.16;5017790;28;20107;-84
2022/05/10 16:42:20;;;;;;;5.57;2.95;;;;;;;26.08;33.64;99590.06;5038502;28;20136;-83
2022/05/10 16:44:47;;;;;;;5.90;2.95;;;;;;;26.01;33.39;99581.06;5039526;28;20052;-85
2022/05/10 16:47:19;;;;;;;5.68;2.90;;;;;;;25.93;33.67;99579.34;5038357;28;20053;-85
2022/05/10 16:49:49;;;;;;;4.68;2.83;;;;;;;25.88;33.69;99573.69;5039089;28;20049;-84
2022/05/10 16:52:17;;;;;;;3.42;2.55;;;;;;;25.81;33.56;99580.88;5038052;28;20183;-85
2022/05/10 16:54:46;;;;;;;9.90;2.95;;;;;;;25.74;34.09;99580.81;5039008;28;20060;-84
2022/05/10 16:57:14;;;;;;;5.93;2.72;;;;;;;25.68;34.05;99582.41;5021004;28;20079;-83
2022/05/10 16:59:42;;;;;;;3.92;2.78;;;;;;;25.65;33.93;99582.81;5038963;28;20538;-83
2022/05/10 17:02:11;;;;;;;3.85;2.70;;;;;;;25.60;34.26;99587.94;5038555;28;20556;-85
2022/05/10 17:04:39;;;;;;;5.40;3.10;;;;;;;25.58;34.22;99589.97;5038393;28;20418;-84
2022/05/10 17:07:09;;;;;;;7.13;3.00;;;;;;;25.54;34.40;99597.59;5038804;28;20049;-84
2022/05/10 17:09:37;;;;;;;6.43;3.03;;;;;;;25.50;34.63;99596.28;5020169;28;20458;-83
2022/05/10 17:12:04;;;;;;;4.65;2.97;;;;;;;25.46;35.15;99608.47;5018867;28;20107;-83
2022/05/10 17:14:30;;;;;;;4.35;3.10;;;;;;;25.39;35.34;99603.00;5037606;28;20061;-83
2022/05/10 17:16:57;;;;;;;7.82;3.03;;;;;;;25.31;35.64;99605.81;5019823;28;20060;-82
2022/05/10 17:19:24;;;;;;;3.72;3.05;;;;;;;25.21;35.64;99604.25;5037434;28;20487;-85
2022/05/10 17:21:50;;;;;;;5.07;3.20;;;;;;;25.11;36.33;99607.22;5019490;28;20061;-83
2022/05/10 17:24:17;;;;;;;5.93;3.17;;;;;;;25.01;36.11;99612.06;5036487;28;20393;-85
2022/05/10 17:26:44;;;;;;;5.13;3.45;;;;;;;24.90;36.31;99613.34;5036798;28;20069;-82
2022/05/10 17:29:10;;;;;;;4.10;3.70;;;;;;;24.81;36.73;99631.41;5036340;28;20045;-84
2022/05/10 17:31:45;;;;;;;8.60;3.67;;;;;;;24.70;37.26;99623.78;5035978;28;20061;-84
2022/05/10 17:34:12;;;;;;;7.15;3.78;;;;;;;24.62;37.01;99618.50;5036964;28;20053;-83
2022/05/10 17:36:45;;;;;;;11.35;3.97;;;;;;;24.51;37.45;99620.59;5037374;28;20505;-84
2022/05/10 17:39:13;;;;;;;6.20;3.45;;;;;;;24.43;37.44;99629.59;5035613;28;20059;-81
2022/05/10 17:41:39;;;;;;;6.72;3.45;;;;;;;24.34;37.64;99655.72;5037166;28;20133;-82
2022/05/10 17:44:06;;;;;;;6.10;3.22;;;;;;;24.26;37.88;99660.34;5037909;28;20057;-83
2022/05/10 17:46:33;;;;;;;8.15;3.35;;;;;;;24.15;37.86;99624.75;5037151;28;20419;-84
2022/05/10 17:49:00;;;;;;;7.22;3.30;;;;;;;24.04;38.23;99619.78;5036989;28;20096;-85
2022/05/10 17:51:28;;;;;;;12.98;3.08;;;;;;;23.96;38.38;99634.13;5036856;28;20077;-83
2022/05/10 17:53:56;;;;;;;7.38;3.30;;;;;;;23.88;38.73;99644.94;5036104;28;20057;-84
2022/05/10 17:56:26;;;;;;;6.85;3.05;;;;;;;23.80;38.95;99645.81;5036980;28;20057;-84
2022/05/10 17:58:53;;;;;;;4.85;2.85;;;;;;;23.73;38.77;99643.00;5036599;28;20049;-84
2022/05/10 18:01:23;;;;;;;10.13;3.78;;;;;;;23.66;39.10;99644.72;5036871;28;20641;-83
2022/05/10 18:03:51;;;;;;;10.52;2.85;;;;;;;23.59;39.31;99639.22;5036887;28;20088;-82
2022/05/10 18:06:18;;;;;;;2.88;2.50;;;;;;;23.53;38.91;99643.44;5037528;28;20052;-84
2022/05/10 18:08:45;;;;;;;6.50;2.90;;;;;;;23.48;39.46;99637.78;5038459;28;20053;-83
2022/05/10 18:11:16;;;;;;;6.35;2.78;;;;;;;23.43;39.92;99650.88;5037398;28;20570;-82
2022/05/10 18:13:42;;;;;;;4.65;2.83;;;;;;;23.39;39.64;99641.47;5037547;28;20053;-84
2022/05/10 18:16:10;;;;;;;6.93;3.08;;;;;;;23.35;40.05;99648.22;5037392;28;20501;-83
2022/05/10 18:18:37;;;;;;;6.93;3.03;;;;;;;23.32;39.85;99653.91;5037169;28;20124;-82
2022/05/10 18:21:06;;;;;;;4.88;2.78;;;;;;;23.26;40.02;99656.28;5036490;28;20124;-83
2022/05/10 18:23:34;;;;;;;7.75;2.63;;;;;;;23.24;40.08;99654.75;5040876;28;20117;-82
2022/05/10 18:26:02;;;;;;;6.07;3.00;;;;;;;23.21;39.84;99661.31;5042459;28;20060;-83
2022/05/10 18:28:29;;;;;;;6.15;3.03;;;;;;;23.17;39.83;99654.63;5042394;28;20053;-83
2022/05/10 18:30:56;;;;;;;9.52;3.50;;;;;;;23.13;39.69;99651.47;5041386;28;20058;-84
2022/05/10 18:33:23;;;;;;;6.03;2.95;;;;;;;23.08;40.17;99669.94;5042341;28;20045;-83
2022/05/10 18:35:50;;;;;;;8.07;2.65;;;;;;;23.02;39.96;99674.13;5041460;28;20108;-83
2022/05/10 18:38:20;;;;;;;5.47;2.90;;;;;;;22.98;40.24;99680.00;5043423;28;20045;-84
2022/05/10 18:40:47;;;;;;;5.35;2.80;;;;;;;22.93;40.23;99663.56;5042769;28;20112;-84
2022/05/10 18:43:14;;;;;;;6.20;3.00;;;;;;;22.87;40.14;99665.09;5025736;28;20053;-85
2022/05/10 18:45:42;;;;;;;8.27;3.20;;;;;;;22.82;40.15;99673.66;5042352;28;20527;-83
2022/05/10 18:48:09;;;;;;;4.38;2.60;;;;;;;22.76;39.95;99659.09;5041889;28;20103;-85
2022/05/10 18:50:35;;;;;;;6.10;2.38;;;;;;;22.71;39.57;99657.91;5041848;28;20080;-82
2022/05/10 18:53:02;;;;;;;3.40;2.08;;;;;;;22.66;39.49;99687.94;5043470;28;20060;-84
2022/05/10 18:55:30;;;;;;;11.60;2.38;;;;;;;22.60;39.13;99694.81;5043417;28;20053;-84
2022/05/10 18:57:57;;;;;;;2.70;1.88;;;;;;;22.55;39.29;99689.13;5043586;28;20486;-84
2022/05/10 19:00:26;;;;;;;8.70;1.90;;;;;;;22.50;39.20;99675.34;5044215;28;20049;-84
2022/05/10 19:02:54;;;;;;;6.25;1.83;;;;;;;22.45;39.15;99669.63;5043729;28;20080;-84
2022/05/10 19:05:23;;;;;;;2.83;1.48;;;;;;;22.38;38.99;99694.44;5042533;28;20057;-84
2022/05/10 19:07:51;;;;;;;5.45;1.80;;;;;;;22.35;38.78;99694.78;5045914;28;20045;-84
2022/05/10 19:10:18;;;;;;;3.50;1.88;;;;;;;22.30;38.75;99698.94;5029787;28;20050;-83
2022/05/10 19:12:45;;;;;;;5.72;2.10;;;;;;;22.25;38.71;99712.88;5046965;28;20057;-82
2022/05/10 19:15:13;;;;;;;5.53;1.77;;;;;;;22.17;38.53;99716.38;5047175;28;20049;-83
2022/05/10 19:17:39;;;;;;;7.18;2.05;;;;;;;22.10;38.41;99700.09;5047640;28;20120;-84
2022/05/10 19:20:09;;;;;;;7.05;1.95;;;;;;;22.03;38.60;99709.81;5047485;28;20049;-81
2022/05/10 19:22:36;;;;;;;7.32;1.52;;;;;;;21.98;38.08;99715.66;5048715;28;20061;-85
2022/05/10 19:25:04;;;;;;;2.28;1.50;;;;;;;21.93;38.17;99704.59;5045414;28;20097;-81
2022/05/10 19:27:31;;;;;;;5.25;1.42;;;;;;;21.91;38.25;99714.63;5032473;28;20052;-82
2022/05/10 19:29:58;;;;;;;5.05;1.70;;;;;;;21.87;38.57;99703.38;5031852;28;20053;-80
2022/05/10 19:32:24;;;;;;;3.03;1.33;;;;;;;21.83;38.41;99712.75;5032196;28;20561;-81
2022/05/10 19:34:51;;;;;;;4.03;1.30;;;;;;;21.80;37.97;99721.13;5032778;28;20545;-81
2022/05/10 19:37:20;;;;;;;13.07;1.80;;;;;;;21.74;38.17;99703.88;5032311;28;20053;-81
2022/05/10 19:39:49;;;;;;;5.85;1.42;;;;;;;21.70;38.06;99718.56;5031604;28;20050;-81
2022/05/10 19:42:16;;;;;;;3.25;1.40;;;;;;;21.69;38.62;99708.84;5036418;28;20495;-82
2022/05/10 19:44:46;;;;;;;4.38;1.30;;;;;;;21.64;38.16;99716.50;5036200;28;20490;-81
2022/05/10 19:47:12;;;;;;;3.72;1.10;;;;;;;21.60;38.49;99712.47;5035820;28;20072;-83
2022/05/10 19:49:39;;;;;;;3.65;1.13;;;;;;;21.55;38.44;99712.97;5017278;28;20461;-82
2022/05/10 19:52:06;;;;;;;4.78;1.30;;;;;;;21.54;38.22;99710.44;5035437;28;20057;-82
2022/05/10 19:54:32;;;;;;;3.85;1.27;;;;;;;21.51;38.17;99705.41;5035578;28;20057;-83
2022/05/10 19:56:59;;;;;;;4.18;1.30;;;;;;;21.47;37.75;99703.06;5035505;28;20053;-81
2022/05/10 19:59:25;;;;;;;3.45;1.58;;;;;;;21.46;38.32;99714.75;5035287;28;20114;-82
2022/05/10 20:07:23;;;;;;;3.22;1.00;;;;;;;21.38;38.54;99695.97;5035625;28;20076;-82
2022/05/10 20:09:51;;;;;;;2.35;1.30;;;;;;;21.36;38.13;99692.63;5035223;28;20077;-83
2022/05/10 20:12:34;;;;;;;5.55;1.30;;;;;;;21.34;38.45;99695.44;5020608;28;20053;-81
2022/05/10 20:15:00;;;;;;;3.00;1.10;;;;;;;21.32;38.73;99694.78;5017969;28;20053;-83
2022/05/10 20:17:27;;;;;;;5.38;1.27;;;;;;;21.30;39.01;99688.75;5021799;28;20057;-82
2022/05/10 20:19:54;;;;;;;2.22;1.20;;;;;;;21.27;39.15;99693.59;5039708;28;20050;-82
2022/05/10 20:22:20;;;;;;;5.95;1.50;;;;;;;21.25;38.90;99688.38;5039111;28;20049;-84
2022/05/10 20:24:47;;;;;;;2.88;1.30;;;;;;;21.24;38.78;99680.50;5038152;28;20568;-85
2022/05/10 20:27:13;;;;;;;3.65;1.02;;;;;;;21.21;38.78;99679.00;5038177;28;20049;-85
2022/05/10 20:29:40;;;;;;;4.28;1.10;;;;;;;21.19;38.94;99681.81;5037596;28;20053;-85
2022/05/10 20:32:27;;;;;;;3.30;1.15;;;;;;;21.19;39.06;99673.78;5038116;28;20088;-84
2022/05/10 20:34:53;;;;;;;4.10;1.23;;;;;;;21.17;38.93;99678.47;5037886;28;20057;-84
2022/05/10 20:37:20;;;;;;;3.67;1.10;;;;;;;21.16;38.88;99679.44;5036241;28;20049;-85
2022/05/10 20:39:46;;;;;;;4.60;1.30;;;;;;;21.15;38.72;99682.31;5035856;28;20057;-81
2022/05/10 20:42:13;;;;;;;4.18;1.00;;;;;;;21.13;38.76;99682.47;5035984;28;20119;-81
2022/05/10 20:44:39;;;;;;;4.72;1.45;;;;;;;21.11;38.56;99679.09;5035846;28;20084;-82
2022/05/10 20:47:06;;;;;;;2.50;1.20;;;;;;;21.08;38.54;99674.06;5035821;28;20061;-81
2022/05/10 20:49:33;;;;;;;1.83;1.20;;;;;;;21.05;38.91;99671.72;5017710;28;20104;-81
2022/05/10 20:51:59;;;;;;;4.63;1.63;;;;;;;21.02;38.57;99670.19;5035128;28;20053;-81
2022/05/10 20:54:27;;;;;;;6.80;1.50;;;;;;;20.99;38.35;99666.97;5017864;28;20113;-81
2022/05/10 20:56:54;;;;;;;1.80;1.23;;;;;;;20.96;38.60;99660.09;5035412;28;20049;-81
2022/05/10 20:59:20;;;;;;;7.20;1.58;;;;;;;20.93;38.71;99660.44;5017862;28;20119;-81
2022/05/10 21:01:47;;;;;;;3.20;1.50;;;;;;;20.90;38.84;99682.16;5035088;28;20072;-82
2022/05/10 21:04:13;;;;;;;4.72;1.58;;;;;;;20.88;38.89;99684.13;5035558;28;20057;-81
2022/05/10 21:09:25;;;;;;;3.25;1.42;;;;;;;20.83;38.32;99665.84;5035697;28;20099;-82
2022/05/10 21:11:52;;;;;;;4.95;1.27;;;;;;;20.78;38.26;99663.63;5017129;28;20112;-83
2022/05/10 21:14:19;;;;;;;3.38;1.25;;;;;;;20.77;38.57;99661.97;5035770;28;20057;-82
2022/05/10 21:16:46;;;;;;;3.00;1.60;;;;;;;20.75;38.40;99665.81;5034913;28;20057;-83
2022/05/10 21:19:12;;;;;;;3.10;1.55;;;;;;;20.73;38.77;99675.81;5035268;28;20057;-82
2022/05/10 21:21:39;;;;;;;3.13;1.52;;;;;;;20.71;38.90;99675.97;5035045;28;20124;-81
2022/05/10 21:24:06;;;;;;;6.43;1.33;;;;;;;20.70;38.34;99666.25;5034830;28;20128;-84
2022/05/10 21:32:03;;;;;;;5.25;1.63;;;;;;;20.65;38.51;99669.41;5034834;28;20080;-83
2022/05/10 21:34:29;;;;;;;3.03;1.50;;;;;;;20.64;38.42;99667.72;5017231;28;20049;-84
2022/05/10 21:36:56;;;;;;;5.70;1.55;;;;;;;20.62;38.75;99667.03;5034506;28;20499;-83
2022/05/10 21:39:22;;;;;;;2.15;1.30;;;;;;;20.61;38.48;99665.38;5034573;28;20531;-85
2022/05/10 21:41:49;;;;;;;4.13;1.50;;;;;;;20.60;38.65;99663.69;5016005;28;20049;-82
2022/05/10 21:44:15;;;;;;;3.75;1.50;;;;;;;20.59;38.70;99662.00;5033831;28;20105;-81
2022/05/10 21:46:42;;;;;;;4.97;1.52;;;;;;;20.57;38.80;99662.16;5034988;28;20103;-82
2022/05/10 21:49:09;;;;;;;7.53;1.83;;;;;;;20.59;38.67;99656.66;5034307;28;20055;-82
2022/05/10 21:51:35;;;;;;;6.65;2.05;;;;;;;20.59;38.80;99662.00;5016499;28;20045;-81
2022/05/10 21:54:02;;;;;;;3.25;1.33;;;;;;;20.60;39.05;99671.72;5016573;28;20045;-82
2022/05/10 21:56:28;;;;;;;4.45;1.58;;;;;;;20.60;38.82;99668.19;5034643;28;20061;-81
2022/05/10 21:58:55;;;;;;;3.30;1.80;;;;;;;20.59;38.95;99659.31;5034310;28;20053;-82
2022/05/10 22:01:22;;;;;;;3.80;1.63;;;;;;;20.61;38.76;99667.19;5016142;28;20489;-82
2022/05/10 22:03:50;;;;;;;5.13;1.63;;;;;;;20.60;38.43;99666.38;5016552;28;20053;-81
2022/05/10 22:06:17;;;;;;;6.10;1.60;;;;;;;20.60;38.45;99661.03;5034273;28;20088;-82
2022/05/10 22:08:45;;;;;;;3.67;1.75;;;;;;;20.59;38.74;99659.31;5017024;28;20073;-82
2022/05/10 22:11:13;;;;;;;6.25;1.80;;;;;;;20.58;38.72;99663.00;5016323;28;20081;-82
2022/05/10 22:13:39;;;;;;;3.47;1.70;;;;;;;20.56;38.63;99651.63;5034020;28;20049;-83
2022/05/10 22:16:07;;;;;;;4.65;1.75;;;;;;;20.54;38.71;99653.59;5033717;28;20560;-85
2022/05/10 22:18:34;;;;;;;6.57;1.90;;;;;;;20.50;38.73;99650.41;5033635;28;20057;-84
2022/05/10 22:21:03;;;;;;;4.32;1.95;;;;;;;20.46;38.97;99656.22;5033395;28;20045;-83
2022/05/10 22:23:30;;;;;;;5.20;2.00;;;;;;;20.43;39.07;99644.84;5033163;28;20053;-84
2022/05/10 22:25:57;;;;;;;6.20;1.85;;;;;;;20.41;39.18;99641.47;5033567;28;20057;-85
2022/05/10 22:28:24;;;;;;;5.13;1.70;;;;;;;20.39;39.43;99637.28;5015814;28;20049;-86
2022/05/10 22:30:50;;;;;;;3.35;1.88;;;;;;;20.36;39.23;99633.09;5033007;28;20051;-85
2022/05/10 22:33:18;;;;;;;3.20;1.75;;;;;;;20.34;39.46;99627.06;5016066;28;20050;-81
2022/05/10 22:35:45;;;;;;;2.90;1.90;;;;;;;20.33;39.45;99624.53;5033705;28;20054;-81
2022/05/10 22:38:12;;;;;;;5.80;1.75;;;;;;;20.29;39.71;99619.50;5033397;28;20050;-82
2022/05/10 22:40:38;;;;;;;2.88;1.75;;;;;;;20.27;39.57;99613.47;5033165;28;20053;-82
2022/05/10 22:43:05;;;;;;;8.25;2.13;;;;;;;20.24;39.48;99607.59;5015945;28;20458;-82
2022/05/10 22:45:31;;;;;;;3.88;1.90;;;;;;;20.20;39.51;99599.06;5033326;28;20458;-81
2022/05/10 22:47:58;;;;;;;2.60;1.70;;;;;;;20.18;39.72;99606.38;5033156;28;20108;-81
2022/05/10 22:50:24;;;;;;;2.60;1.80;;;;;;;20.15;39.90;99596.81;5033423;28;20105;-81
2022/05/10 22:52:51;;;;;;;2.95;1.77;;;;;;;20.12;39.75;99589.13;5033001;28;20198;-82
2022/05/10 22:55:18;;;;;;;3.75;1.80;;;;;;;20.10;39.79;99596.44;5032681;28;20053;-81
2022/05/10 22:57:45;;;;;;;4.05;1.63;;;;;;;20.07;40.03;99594.09;5032226;28;20053;-82